Time;durP1;ratioP1;P1;durP2;ratioP2;P2;SDS_P1;SDS_P2;PMS_P1;PMS_P2;Temp;Humidity;BMP_temperature;BMP_pressure;BME280_temperature;BME280_humidity;BME280_pressure;Samples;Min_cycle;Max_cycle;Signal;HPM_P1;HPM_P2
2022/09/12 00:01:14;;;;;;;40.42;21.80;;;;;;;;;;5011318;28;20140;-80
2022/09/12 00:03:41;;;;;;;37.47;20.88;;;;;;;;;;5009405;28;20042;-80
2022/09/12 00:06:14;;;;;;;38.28;22.33;;;;;;;;;;5006160;28;20057;-79
2022/09/12 00:08:47;;;;;;;35.85;21.65;;;;;;;;;;5011372;28;20060;-78
2022/09/12 00:11:14;;;;;;;36.92;21.00;;;;;;;;;;4991513;28;20048;-79
2022/09/12 00:13:41;;;;;;;35.50;20.98;;;;;;;;;;4991064;28;20056;-79
2022/09/12 00:16:13;;;;;;;39.78;20.52;;;;;;;;;;5010261;28;20049;-78
2022/09/12 00:18:39;;;;;;;36.95;20.50;;;;;;;;;;5010242;28;20106;-80
2022/09/12 00:21:06;;;;;;;37.47;20.40;;;;;;;;;;5006422;28;20129;-79
2022/09/12 00:23:32;;;;;;;35.97;19.35;;;;;;;;;;5000602;28;20046;-80
2022/09/12 00:25:59;;;;;;;35.60;20.42;;;;;;;;;;5005719;28;20062;-80
2022/09/12 00:28:25;;;;;;;36.65;20.58;;;;;;;;;;4982939;28;20064;-80
2022/09/12 00:30:52;;;;;;;35.40;19.77;;;;;;;;;;5006092;28;20044;-80
2022/09/12 00:33:18;;;;;;;32.85;20.02;;;;;;;;;;5000746;28;20046;-80
2022/09/12 00:35:46;;;;;;;34.13;20.50;;;;;;;;;;4998322;28;20050;-80
2022/09/12 00:38:13;;;;;;;33.05;19.55;;;;;;;;;;4997135;28;20054;-81
2022/09/12 00:40:40;;;;;;;34.97;21.27;;;;;;;;;;4976588;28;20054;-81
2022/09/12 00:43:33;;;;;;;31.00;17.83;;;;;;;;;;4974692;28;20069;-79
2022/09/12 00:46:03;;;;;;;35.50;20.02;;;;;;;;;;4991362;28;20443;-78
2022/09/12 00:48:32;;;;;;;33.60;19.90;;;;;;;;;;4992744;28;20085;-80
2022/09/12 00:50:58;;;;;;;30.88;17.92;;;;;;;;;;4993323;28;20073;-78
2022/09/12 00:53:25;;;;;;;28.27;17.50;;;;;;;;;;4993227;28;20052;-80
2022/09/12 00:55:52;;;;;;;34.63;19.65;;;;;;;;;;4994613;28;20056;-78
2022/09/12 00:58:23;;;;;;;30.23;18.00;;;;;;;;;;4974246;28;20051;-79
2022/09/12 01:00:50;;;;;;;29.45;17.67;;;;;;;;;;4992828;28;20057;-80
2022/09/12 01:03:18;;;;;;;28.77;17.20;;;;;;;;;;4991230;28;20054;-80
2022/09/12 01:06:02;;;;;;;30.73;18.13;;;;;;;;;;4993645;28;20053;-81
2022/09/12 01:08:29;;;;;;;32.58;18.40;;;;;;;;;;4991885;28;20047;-79
2022/09/12 01:10:56;;;;;;;28.52;16.50;;;;;;;;;;4975882;28;20057;-79
2022/09/12 01:13:23;;;;;;;32.53;18.38;;;;;;;;;;4991769;28;20553;-80
2022/09/12 01:15:49;;;;;;;33.13;17.33;;;;;;;;;;4975673;28;20455;-80
2022/09/12 01:18:40;;;;;;;32.10;17.85;;;;;;;;;;4991941;28;20062;-80
2022/09/12 01:21:26;;;;;;;34.33;18.13;;;;;;;;;;4993168;28;20058;-80
2022/09/12 01:24:27;;;;;;;31.02;17.52;;;;;;;;;;4991931;28;20054;-80
2022/09/12 01:26:54;;;;;;;31.50;17.83;;;;;;;;;;4931313;29;20040;-80
2022/09/12 01:29:35;;;;;;;29.70;17.13;;;;;;;;;;4978673;28;20046;-80
2022/09/12 01:32:01;;;;;;;31.48;17.13;;;;;;;;;;4991271;28;20046;-80
2022/09/12 01:34:31;;;;;;;30.92;18.30;;;;;;;;;;4992747;28;20062;-80
2022/09/12 01:36:57;;;;;;;33.45;18.35;;;;;;;;;;4994393;28;20057;-80
2022/09/12 01:39:30;;;;;;;31.15;18.58;;;;;;;;;;4991633;28;20050;-81
2022/09/12 01:42:09;;;;;;;34.78;19.10;;;;;;;;;;4993247;28;20054;-80
2022/09/12 01:44:41;;;;;;;38.58;18.95;;;;;;;;;;4993143;28;20050;-80
2022/09/12 01:47:19;;;;;;;36.40;19.92;;;;;;;;;;4993531;28;20606;-80
2022/09/12 01:49:51;;;;;;;38.03;19.95;;;;;;;;;;4993960;28;20050;-80
2022/09/12 01:52:26;;;;;;;34.58;19.80;;;;;;;;;;4994921;28;20053;-79
2022/09/12 01:54:56;;;;;;;37.70;20.65;;;;;;;;;;4993889;28;20069;-81
2022/09/12 01:57:26;;;;;;;33.38;18.60;;;;;;;;;;4977104;28;20054;-80
2022/09/12 01:59:55;;;;;;;29.80;17.50;;;;;;;;;;4993875;28;20068;-81
2022/09/12 02:02:27;;;;;;;36.17;18.63;;;;;;;;;;4994364;28;20050;-81
2022/09/12 02:04:57;;;;;;;31.67;18.38;;;;;;;;;;4994717;28;20582;-81
2022/09/12 02:07:26;;;;;;;31.23;17.60;;;;;;;;;;4993874;28;20050;-81
2022/09/12 02:09:58;;;;;;;34.72;19.73;;;;;;;;;;4991022;28;20707;-81
2022/09/12 02:12:28;;;;;;;34.65;18.08;;;;;;;;;;4975872;28;20058;-81
2022/09/12 02:14:58;;;;;;;30.52;18.20;;;;;;;;;;4992725;28;20046;-80
2022/09/12 02:17:25;;;;;;;31.33;18.17;;;;;;;;;;4975384;28;20054;-80
2022/09/12 02:19:57;;;;;;;32.35;18.80;;;;;;;;;;4997847;28;20426;-79
2022/09/12 02:22:25;;;;;;;34.97;19.40;;;;;;;;;;4999427;28;20072;-80
2022/09/12 02:24:54;;;;;;;33.15;18.95;;;;;;;;;;4999629;28;20050;-81
2022/09/12 02:27:23;;;;;;;38.42;19.10;;;;;;;;;;4999398;28;20541;-80
2022/09/12 02:29:49;;;;;;;34.03;19.42;;;;;;;;;;4979474;28;20058;-80
2022/09/12 02:32:37;;;;;;;33.55;18.02;;;;;;;;;;4996188;28;20057;-79
2022/09/12 02:35:09;;;;;;;32.80;17.05;;;;;;;;;;4996822;28;20074;-81
2022/09/12 02:37:55;;;;;;;31.23;18.02;;;;;;;;;;4996055;28;20057;-79
2022/09/12 02:40:21;;;;;;;33.30;18.40;;;;;;;;;;4995689;28;20060;-80
2022/09/12 02:42:48;;;;;;;29.70;17.27;;;;;;;;;;4996290;28;20061;-81
2022/09/12 02:45:15;;;;;;;31.27;16.92;;;;;;;;;;4997303;28;20903;-80
2022/09/12 02:47:47;;;;;;;27.90;17.00;;;;;;;;;;4989952;28;20043;-81
2022/09/12 02:50:16;;;;;;;29.08;16.10;;;;;;;;;;4997152;28;20047;-80
2022/09/12 02:52:42;;;;;;;32.20;16.65;;;;;;;;;;5018235;28;20042;-79
2022/09/12 02:55:12;;;;;;;38.20;21.80;;;;;;;;;;5017841;28;20110;-80
2022/09/12 02:57:39;;;;;;;37.35;20.15;;;;;;;;;;5015147;28;20078;-80
2022/09/12 03:00:06;;;;;;;38.47;19.92;;;;;;;;;;5014133;28;20058;-79
2022/09/12 03:02:57;;;;;;;33.85;18.63;;;;;;;;;;5014447;28;20042;-80
2022/09/12 03:05:28;;;;;;;35.85;18.90;;;;;;;;;;5015261;28;20094;-80
2022/09/12 03:08:13;;;;;;;33.67;18.88;;;;;;;;;;5014172;28;20034;-79
2022/09/12 03:11:01;;;;;;;33.90;18.88;;;;;;;;;;5012974;28;20172;-79
2022/09/12 03:13:30;;;;;;;40.95;21.30;;;;;;;;;;4996454;28;20061;-80
2022/09/12 03:16:15;;;;;;;40.88;20.38;;;;;;;;;;5015569;28;20057;-79
2022/09/12 03:18:50;;;;;;;47.40;23.07;;;;;;;;;;4996761;28;20054;-79
2022/09/12 03:21:21;;;;;;;39.93;21.33;;;;;;;;;;5015870;28;20102;-80
2022/09/12 03:23:48;;;;;;;44.75;22.00;;;;;;;;;;5015438;28;20294;-80
2022/09/12 03:26:17;;;;;;;37.13;20.33;;;;;;;;;;5013521;28;20055;-81
2022/09/12 03:28:45;;;;;;;36.90;20.65;;;;;;;;;;5011591;28;20047;-80
2022/09/12 03:31:13;;;;;;;41.20;21.98;;;;;;;;;;4996847;28;20050;-76
2022/09/12 03:33:39;;;;;;;41.20;21.35;;;;;;;;;;4978663;28;20046;-81
2022/09/12 03:36:09;;;;;;;39.65;21.75;;;;;;;;;;4976887;28;20097;-81
2022/09/12 03:38:35;;;;;;;45.33;22.13;;;;;;;;;;4995095;28;20050;-81
2022/09/12 03:41:01;;;;;;;34.22;18.88;;;;;;;;;;4980009;28;20081;-80
2022/09/12 03:43:28;;;;;;;37.33;19.98;;;;;;;;;;4995421;28;20051;-81
2022/09/12 03:45:54;;;;;;;38.80;20.35;;;;;;;;;;4996113;28;20058;-79
2022/09/12 03:48:21;;;;;;;36.03;19.35;;;;;;;;;;4995092;28;20122;-80
2022/09/12 03:50:47;;;;;;;40.15;21.08;;;;;;;;;;4978511;28;20053;-79
2022/09/12 03:53:13;;;;;;;38.38;20.95;;;;;;;;;;4979364;28;20410;-80
2022/09/12 03:55:42;;;;;;;34.35;19.02;;;;;;;;;;4996900;28;20077;-79
2022/09/12 03:58:09;;;;;;;37.50;18.70;;;;;;;;;;4996806;28;20058;-79
2022/09/12 04:00:37;;;;;;;35.70;19.08;;;;;;;;;;4977631;28;20057;-79
2022/09/12 04:03:04;;;;;;;34.58;18.48;;;;;;;;;;4993695;28;20467;-79
2022/09/12 04:05:30;;;;;;;37.25;18.73;;;;;;;;;;4995388;28;20081;-81
2022/09/12 04:07:56;;;;;;;36.25;18.65;;;;;;;;;;4978515;28;20054;-79
2022/09/12 04:10:23;;;;;;;33.55;18.33;;;;;;;;;;4996062;28;20050;-79
2022/09/12 04:12:49;;;;;;;32.53;18.15;;;;;;;;;;5000053;28;20046;-81
2022/09/12 04:15:15;;;;;;;32.42;18.65;;;;;;;;;;4995321;28;20054;-80
2022/09/12 04:17:42;;;;;;;31.23;17.45;;;;;;;;;;4996137;28;20076;-80
2022/09/12 04:20:08;;;;;;;35.92;17.50;;;;;;;;;;4998737;28;20050;-81
2022/09/12 04:22:35;;;;;;;32.08;18.48;;;;;;;;;;4998370;28;20066;-80
2022/09/12 04:25:01;;;;;;;32.10;18.13;;;;;;;;;;5003603;28;20081;-77
2022/09/12 04:27:27;;;;;;;33.50;19.15;;;;;;;;;;4997312;28;20050;-78
2022/09/12 04:29:55;;;;;;;34.92;19.50;;;;;;;;;;4998235;28;20101;-79
2022/09/12 04:32:21;;;;;;;37.13;20.73;;;;;;;;;;4993128;28;20054;-78
2022/09/12 04:34:48;;;;;;;39.78;21.10;;;;;;;;;;4991395;28;20120;-78
2022/09/12 04:37:14;;;;;;;45.97;21.75;;;;;;;;;;4992415;28;20144;-81
2022/09/12 04:39:43;;;;;;;44.20;21.50;;;;;;;;;;4990319;28;20065;-80
2022/09/12 04:42:09;;;;;;;43.92;20.17;;;;;;;;;;4990995;28;20077;-81
2022/09/12 04:44:36;;;;;;;47.42;22.05;;;;;;;;;;4996725;28;20105;-80
2022/09/12 04:47:02;;;;;;;54.65;22.50;;;;;;;;;;4998911;28;20050;-80
2022/09/12 04:49:29;;;;;;;45.53;21.05;;;;;;;;;;4991650;28;20054;-81
2022/09/12 04:51:55;;;;;;;49.70;22.95;;;;;;;;;;4992994;28;20054;-80
2022/09/12 04:54:21;;;;;;;50.85;23.50;;;;;;;;;;4992575;28;20387;-81
2022/09/12 04:56:48;;;;;;;43.63;22.80;;;;;;;;;;4992925;28;20046;-81
2022/09/12 04:59:15;;;;;;;49.00;23.23;;;;;;;;;;4975054;28;20095;-80
2022/09/12 05:01:42;;;;;;;53.47;23.83;;;;;;;;;;4991487;28;20062;-79
2022/09/12 05:04:09;;;;;;;48.92;23.52;;;;;;;;;;4974021;28;20052;-81
2022/09/12 05:06:36;;;;;;;50.47;23.45;;;;;;;;;;4995004;28;20056;-81
2022/09/12 05:09:03;;;;;;;46.45;22.42;;;;;;;;;;4991899;28;20051;-81
2022/09/12 05:11:31;;;;;;;43.53;20.92;;;;;;;;;;4992723;28;20058;-81
2022/09/12 05:14:17;;;;;;;49.55;23.73;;;;;;;;;;4992139;28;20054;-82
2022/09/12 05:16:44;;;;;;;39.85;20.33;;;;;;;;;;4992327;28;20057;-80
2022/09/12 05:19:15;;;;;;;46.30;20.70;;;;;;;;;;4991749;28;20057;-81
2022/09/12 05:21:41;;;;;;;44.55;21.60;;;;;;;;;;4992701;28;20090;-79
2022/09/12 05:24:09;;;;;;;42.33;20.95;;;;;;;;;;4991871;28;20117;-80
2022/09/12 05:26:35;;;;;;;55.03;22.73;;;;;;;;;;4973978;28;20479;-81
2022/09/12 05:29:03;;;;;;;51.67;23.50;;;;;;;;;;4991235;28;20486;-79
2022/09/12 05:31:29;;;;;;;43.08;22.58;;;;;;;;;;4975456;28;20054;-81
2022/09/12 05:33:56;;;;;;;49.30;23.58;;;;;;;;;;4974789;28;20057;-81
2022/09/12 05:36:22;;;;;;;38.25;21.27;;;;;;;;;;4993635;28;20386;-81
2022/09/12 05:38:49;;;;;;;39.25;20.95;;;;;;;;;;4997395;28;20106;-80
2022/09/12 05:41:17;;;;;;;42.85;21.55;;;;;;;;;;4992448;28;20109;-79
2022/09/12 05:43:51;;;;;;;38.95;20.75;;;;;;;;;;4991991;28;20054;-79
2022/09/12 05:46:18;;;;;;;40.38;22.58;;;;;;;;;;4973965;28;20046;-79
2022/09/12 05:48:45;;;;;;;43.65;22.88;;;;;;;;;;4974100;28;20545;-78
2022/09/12 05:51:17;;;;;;;42.92;21.88;;;;;;;;;;4991322;28;20042;-79
2022/09/12 05:53:45;;;;;;;41.28;21.90;;;;;;;;;;4990395;28;20057;-80
2022/09/12 05:56:12;;;;;;;41.72;21.90;;;;;;;;;;4973479;28;20112;-79
2022/09/12 05:58:40;;;;;;;39.28;21.77;;;;;;;;;;4989354;28;20050;-80
2022/09/12 06:01:08;;;;;;;41.85;21.67;;;;;;;;;;4991420;28;20112;-79
2022/09/12 06:03:35;;;;;;;41.25;23.02;;;;;;;;;;4975760;28;20093;-81
2022/09/12 06:06:03;;;;;;;42.03;20.52;;;;;;;;;;5011346;28;20050;-81
2022/09/12 06:08:30;;;;;;;45.35;26.13;;;;;;;;;;5009738;28;20137;-81
2022/09/12 06:11:03;;;;;;;44.10;25.20;;;;;;;;;;5010945;28;20144;-81
2022/09/12 06:13:30;;;;;;;48.50;24.67;;;;;;;;;;4993543;28;20048;-81
2022/09/12 06:16:01;;;;;;;46.42;23.70;;;;;;;;;;5012207;28;20057;-81
2022/09/12 06:18:28;;;;;;;42.55;24.13;;;;;;;;;;5019270;28;20125;-78
2022/09/12 06:20:54;;;;;;;41.47;22.35;;;;;;;;;;5032744;28;20057;-81
2022/09/12 06:23:23;;;;;;;47.55;24.35;;;;;;;;;;5013753;28;20037;-80
2022/09/12 06:25:50;;;;;;;43.30;22.10;;;;;;;;;;5011317;28;20057;-80
2022/09/12 06:28:17;;;;;;;46.35;22.92;;;;;;;;;;5010211;28;20065;-81
2022/09/12 06:30:43;;;;;;;43.38;23.20;;;;;;;;;;5011273;28;20045;-81
2022/09/12 06:33:09;;;;;;;45.17;23.17;;;;;;;;;;5010742;28;20056;-81
2022/09/12 06:35:37;;;;;;;40.45;21.30;;;;;;;;;;5011247;28;20073;-79
2022/09/12 06:38:04;;;;;;;41.25;21.88;;;;;;;;;;5010510;28;20414;-81
2022/09/12 06:40:31;;;;;;;39.53;21.20;;;;;;;;;;5010676;28;20050;-79
2022/09/12 06:42:57;;;;;;;34.00;18.92;;;;;;;;;;5010448;28;20057;-80
2022/09/12 06:45:24;;;;;;;37.97;21.25;;;;;;;;;;5009653;28;20042;-81
2022/09/12 06:47:51;;;;;;;36.75;19.38;;;;;;;;;;5010773;28;20533;-81
2022/09/12 06:50:17;;;;;;;40.38;20.35;;;;;;;;;;5009560;28;20394;-82
2022/09/12 06:52:44;;;;;;;40.58;20.23;;;;;;;;;;5011555;28;20046;-82
2022/09/12 06:55:10;;;;;;;36.55;19.02;;;;;;;;;;5012202;28;20053;-80
2022/09/12 06:57:37;;;;;;;45.08;21.10;;;;;;;;;;5010396;28;20046;-81
2022/09/12 07:00:04;;;;;;;43.30;20.95;;;;;;;;;;5010283;28;20053;-81
2022/09/12 07:02:31;;;;;;;43.88;21.58;;;;;;;;;;5010387;28;20056;-80
2022/09/12 07:04:57;;;;;;;39.85;21.77;;;;;;;;;;5010833;28;20553;-80
2022/09/12 07:07:23;;;;;;;41.95;21.35;;;;;;;;;;5012334;28;20058;-81
2022/09/12 07:09:50;;;;;;;47.28;21.67;;;;;;;;;;5010685;28;20084;-81
2022/09/12 07:12:16;;;;;;;39.90;21.00;;;;;;;;;;5013449;28;20498;-80
2022/09/12 07:14:42;;;;;;;39.78;21.13;;;;;;;;;;5012529;28;20072;-80
2022/09/12 07:17:09;;;;;;;42.08;21.33;;;;;;;;;;5014317;28;20057;-80
2022/09/12 07:19:35;;;;;;;39.65;19.70;;;;;;;;;;5013429;28;20053;-80
2022/09/12 07:22:01;;;;;;;44.58;21.35;;;;;;;;;;4996927;28;20050;-81
2022/09/12 07:24:28;;;;;;;47.42;21.50;;;;;;;;;;5013022;28;20054;-81
2022/09/12 07:26:54;;;;;;;41.80;21.10;;;;;;;;;;5012744;28;20057;-81
2022/09/12 07:29:21;;;;;;;39.90;21.00;;;;;;;;;;5013467;28;20068;-81
2022/09/12 07:32:04;;;;;;;40.55;21.48;;;;;;;;;;5012914;28;20054;-81
2022/09/12 07:34:31;;;;;;;40.22;20.80;;;;;;;;;;5012550;28;20494;-81
2022/09/12 07:36:57;;;;;;;35.90;18.77;;;;;;;;;;5013217;28;20046;-81
2022/09/12 07:39:24;;;;;;;35.45;19.38;;;;;;;;;;4993846;28;20426;-80
2022/09/12 07:41:50;;;;;;;38.35;19.75;;;;;;;;;;5012296;28;20097;-82
2022/09/12 07:44:16;;;;;;;35.88;18.85;;;;;;;;;;5012266;28;20072;-81
2022/09/12 07:46:43;;;;;;;35.47;18.02;;;;;;;;;;5011861;28;20062;-82
2022/09/12 07:49:10;;;;;;;32.35;17.33;;;;;;;;;;4994600;28;20042;-81
2022/09/12 07:51:37;;;;;;;30.08;18.02;;;;;;;;;;5012846;28;20053;-81
2022/09/12 07:54:07;;;;;;;27.02;14.85;;;;;;;;;;5012935;28;20414;-81
2022/09/12 07:56:34;;;;;;;24.00;13.43;;;;;;;;;;5012820;28;20046;-79
2022/09/12 07:59:04;;;;;;;22.73;11.93;;;;;;;;;;5011410;28;20513;-81
2022/09/12 08:01:31;;;;;;;21.65;12.32;;;;;;;;;;5012653;28;20511;-81
2022/09/12 08:03:58;;;;;;;19.33;10.57;;;;;;;;;;5005563;28;20050;-82
2022/09/12 08:06:25;;;;;;;18.70;10.10;;;;;;;;;;4991666;28;20069;-81
2022/09/12 08:08:53;;;;;;;15.63;9.57;;;;;;;;;;4991806;28;20054;-81
2022/09/12 08:11:20;;;;;;;16.15;9.23;;;;;;;;;;4991063;28;20054;-81
2022/09/12 08:13:47;;;;;;;19.60;10.30;;;;;;;;;;4991687;28;20050;-81
2022/09/12 08:16:20;;;;;;;14.10;8.57;;;;;;;;;;4991383;28;20051;-81
2022/09/12 08:18:47;;;;;;;13.15;7.47;;;;;;;;;;4992049;28;20054;-81
2022/09/12 08:21:15;;;;;;;11.70;6.35;;;;;;;;;;4992753;28;20054;-81
2022/09/12 08:23:42;;;;;;;13.93;7.35;;;;;;;;;;4997141;28;20054;-81
2022/09/12 08:26:08;;;;;;;13.02;7.07;;;;;;;;;;4990863;28;20054;-79
2022/09/12 08:28:35;;;;;;;13.98;6.75;;;;;;;;;;4989736;28;20064;-80
2022/09/12 08:31:12;;;;;;;14.77;7.82;;;;;;;;;;4992721;28;20061;-79
2022/09/12 08:33:39;;;;;;;11.80;6.72;;;;;;;;;;4991592;28;20054;-80
2022/09/12 08:36:06;;;;;;;12.25;7.03;;;;;;;;;;4991416;28;20042;-81
2022/09/12 08:38:33;;;;;;;9.65;6.07;;;;;;;;;;4991605;28;20065;-80
2022/09/12 08:41:03;;;;;;;11.18;6.55;;;;;;;;;;5011781;28;20061;-79
2022/09/12 08:43:41;;;;;;;9.57;5.40;;;;;;;;;;5010943;28;20520;-81
2022/09/12 08:46:11;;;;;;;7.68;4.72;;;;;;;;;;5011873;28;20398;-80
2022/09/12 08:48:39;;;;;;;10.38;5.85;;;;;;;;;;5014934;28;20049;-80
2022/09/12 08:51:07;;;;;;;9.93;6.18;;;;;;;;;;5014297;28;20049;-82
2022/09/12 08:53:35;;;;;;;9.40;6.50;;;;;;;;;;5011582;28;20058;-82
2022/09/12 08:56:04;;;;;;;9.48;6.50;;;;;;;;;;5011703;28;20134;-82
2022/09/12 08:58:34;;;;;;;9.43;6.63;;;;;;;;;;5011536;28;20062;-81
2022/09/12 09:01:09;;;;;;;7.60;4.63;;;;;;;;;;5015830;28;20057;-81
2022/09/12 09:03:39;;;;;;;7.45;3.53;;;;;;;;;;5011357;28;20050;-80
2022/09/12 09:06:11;;;;;;;4.93;3.13;;;;;;;;;;4996645;28;20046;-80
2022/09/12 09:08:57;;;;;;;6.18;4.43;;;;;;;;;;4996049;28;20050;-80
2022/09/12 09:11:44;;;;;;;7.72;4.15;;;;;;;;;;4979768;28;20613;-80
2022/09/12 09:17:13;;;;;;;9.90;6.15;;;;;;;;;;4994114;28;20415;-81
2022/09/12 09:19:43;;;;;;;14.48;8.07;;;;;;;;;;4992053;28;20057;-80
2022/09/12 09:22:22;;;;;;;8.38;5.00;;;;;;;;;;4996073;28;20385;-80
2022/09/12 09:24:52;;;;;;;11.90;4.30;;;;;;;;;;5007892;28;20247;-80
2022/09/12 09:27:21;;;;;;;6.72;4.28;;;;;;;;;;5005601;28;20050;-80
2022/09/12 09:30:17;;;;;;;7.45;4.53;;;;;;;;;;5010910;28;20096;-81
2022/09/12 09:32:46;;;;;;;6.90;4.32;;;;;;;;;;5009991;28;20061;-80
2022/09/12 09:35:21;;;;;;;6.57;4.63;;;;;;;;;;4992459;28;20046;-81
2022/09/12 09:38:01;;;;;;;8.07;4.32;;;;;;;;;;5009696;28;20054;-81
2022/09/12 09:40:35;;;;;;;8.55;5.90;;;;;;;;;;4991165;28;20054;-81
2022/09/12 09:43:05;;;;;;;8.57;5.10;;;;;;;;;;5008834;28;20076;-81
2022/09/12 09:45:31;;;;;;;6.88;3.55;;;;;;;;;;5010605;28;20121;-80
2022/09/12 09:48:03;;;;;;;6.95;3.50;;;;;;;;;;5011159;28;20229;-82
2022/09/12 09:50:30;;;;;;;5.32;3.08;;;;;;;;;;5013539;28;20038;-82
2022/09/12 09:52:58;;;;;;;6.28;3.13;;;;;;;;;;4995678;28;20056;-79
2022/09/12 09:55:28;;;;;;;6.10;3.25;;;;;;;;;;5008590;28;20058;-81
2022/09/12 09:57:54;;;;;;;5.43;3.47;;;;;;;;;;5010055;28;20060;-79
2022/09/12 10:00:24;;;;;;;6.60;3.97;;;;;;;;;;5002429;28;20046;-80
2022/09/12 10:02:57;;;;;;;5.88;3.83;;;;;;;;;;5007320;28;20050;-82
2022/09/12 10:05:23;;;;;;;6.30;4.05;;;;;;;;;;5028190;28;20054;-81
2022/09/12 10:07:50;;;;;;;7.82;4.40;;;;;;;;;;5024970;28;20056;-80
2022/09/12 10:10:18;;;;;;;8.20;3.03;;;;;;;;;;5010928;28;20521;-80
2022/09/12 10:12:44;;;;;;;5.32;3.38;;;;;;;;;;5009115;28;20300;-79
2022/09/12 10:15:28;;;;;;;4.15;2.80;;;;;;;;;;5006539;28;20053;-80
2022/09/12 10:17:55;;;;;;;4.47;2.60;;;;;;;;;;5009597;28;20084;-80
2022/09/12 10:20:29;;;;;;;4.47;2.60;;;;;;;;;;5009791;28;20057;-80
2022/09/12 10:22:57;;;;;;;4.82;2.88;;;;;;;;;;4991445;28;20501;-78
2022/09/12 10:25:24;;;;;;;6.15;3.90;;;;;;;;;;5008931;28;20434;-80
2022/09/12 10:27:52;;;;;;;6.45;3.47;;;;;;;;;;5008775;28;20065;-79
2022/09/12 10:30:19;;;;;;;5.40;3.80;;;;;;;;;;5008247;28;20049;-81
2022/09/12 10:32:49;;;;;;;6.95;4.63;;;;;;;;;;5008664;28;20053;-79
2022/09/12 10:35:17;;;;;;;5.40;3.33;;;;;;;;;;5009324;28;20046;-79
2022/09/12 10:38:01;;;;;;;8.48;5.28;;;;;;;;;;4991978;28;20045;-78
2022/09/12 10:40:28;;;;;;;11.55;6.30;;;;;;;;;;5008130;28;20050;-79
2022/09/12 10:42:56;;;;;;;6.88;4.13;;;;;;;;;;5007808;28;20565;-78
2022/09/12 10:45:37;;;;;;;5.18;3.25;;;;;;;;;;5010834;28;20057;-80
2022/09/12 10:48:21;;;;;;;12.00;6.30;;;;;;;;;;5012216;28;20053;-80
2022/09/12 10:50:47;;;;;;;3.85;2.78;;;;;;;;;;5012808;28;20046;-80
2022/09/12 10:53:18;;;;;;;5.63;3.17;;;;;;;;;;5012503;28;20056;-78
2022/09/12 10:55:57;;;;;;;4.43;2.65;;;;;;;;;;5013226;28;20057;-80
2022/09/12 10:58:33;;;;;;;6.20;3.17;;;;;;;;;;5012295;28;20060;-80
2022/09/12 11:01:20;;;;;;;4.32;2.90;;;;;;;;;;5013515;28;20153;-80
2022/09/12 11:03:49;;;;;;;8.32;3.10;;;;;;;;;;5007846;28;20058;-80
2022/09/12 11:06:22;;;;;;;3.97;2.30;;;;;;;;;;4993456;28;20431;-79
2022/09/12 11:08:52;;;;;;;2.47;1.70;;;;;;;;;;4975248;28;20058;-79
2022/09/12 11:11:33;;;;;;;5.40;1.90;;;;;;;;;;4992759;28;20129;-80
2022/09/12 11:14:08;;;;;;;1.58;1.27;;;;;;;;;;4992135;28;20046;-79
2022/09/12 11:16:53;;;;;;;2.35;1.50;;;;;;;;;;4992709;28;20396;-80
2022/09/12 11:19:42;;;;;;;2.00;1.52;;;;;;;;;;4992360;28;20053;-82
2022/09/12 11:22:23;;;;;;;2.42;1.60;;;;;;;;;;4993329;28;20047;-81
2022/09/12 11:25:22;;;;;;;3.03;1.90;;;;;;;;;;4992956;28;20487;-82
2022/09/12 11:27:59;;;;;;;4.55;1.80;;;;;;;;;;4973088;28;20046;-81
2022/09/12 11:30:26;;;;;;;2.78;1.70;;;;;;;;;;4976526;28;20054;-81
2022/09/12 11:32:52;;;;;;;4.35;1.70;;;;;;;;;;4993195;28;20046;-82
2022/09/12 11:35:23;;;;;;;3.53;1.65;;;;;;;;;;4994468;28;20054;-82
2022/09/12 11:38:09;;;;;;;3.53;1.73;;;;;;;;;;4994608;28;20395;-82
2022/09/12 11:40:38;;;;;;;2.78;1.90;;;;;;;;;;4994332;28;20069;-82
2022/09/12 11:43:15;;;;;;;3.97;1.80;;;;;;;;;;4992350;28;20058;-82
2022/09/12 11:45:43;;;;;;;3.38;2.15;;;;;;;;;;4995021;28;20065;-81
2022/09/12 11:48:13;;;;;;;3.20;1.95;;;;;;;;;;4992884;28;20050;-80
2022/09/12 11:50:39;;;;;;;3.22;1.98;;;;;;;;;;4992249;28;20046;-81
2022/09/12 11:53:13;;;;;;;2.60;2.00;;;;;;;;;;4992355;28;20054;-80
2022/09/12 11:55:49;;;;;;;2.75;2.05;;;;;;;;;;4992400;28;20050;-81
2022/09/12 11:58:18;;;;;;;3.70;2.20;;;;;;;;;;4974212;28;20442;-79
2022/09/12 12:00:49;;;;;;;3.35;2.33;;;;;;;;;;4992686;28;20538;-81
2022/09/12 12:03:22;;;;;;;3.33;2.33;;;;;;;;;;4975027;28;20062;-79
2022/09/12 12:05:50;;;;;;;4.93;2.35;;;;;;;;;;5012587;28;20522;-79
2022/09/12 12:08:18;;;;;;;3.47;2.40;;;;;;;;;;5011629;28;20068;-80
2022/09/12 12:10:53;;;;;;;4.75;2.40;;;;;;;;;;5011495;28;20077;-81
2022/09/12 12:13:31;;;;;;;3.67;2.55;;;;;;;;;;5012135;28;20050;-82
2022/09/12 12:16:03;;;;;;;2.83;2.20;;;;;;;;;;5012870;28;20042;-80
2022/09/12 12:18:31;;;;;;;5.22;3.28;;;;;;;;;;5012084;28;20050;-81
2022/09/12 12:21:17;;;;;;;5.43;2.20;;;;;;;;;;5013718;28;20052;-82
2022/09/12 12:24:01;;;;;;;4.15;2.60;;;;;;;;;;5012765;28;20064;-81
2022/09/12 12:26:39;;;;;;;6.13;3.75;;;;;;;;;;4994502;28;20053;-80
2022/09/12 12:29:15;;;;;;;2.72;2.17;;;;;;;;;;5014138;28;20056;-81
2022/09/12 12:32:02;;;;;;;3.55;2.30;;;;;;;;;;5012430;28;20058;-79
2022/09/12 12:34:32;;;;;;;3.38;2.20;;;;;;;;;;5011830;28;20479;-81
2022/09/12 12:37:18;;;;;;;7.95;2.30;;;;;;;;;;5011776;28;20490;-82
2022/09/12 12:39:46;;;;;;;3.78;2.38;;;;;;;;;;5010853;28;20495;-82
2022/09/12 12:42:31;;;;;;;5.88;2.30;;;;;;;;;;5011674;28;20127;-80
2022/09/12 12:44:58;;;;;;;3.05;2.30;;;;;;;;;;5011990;28;20080;-80
2022/09/12 12:47:26;;;;;;;3.45;2.20;;;;;;;;;;5012104;28;20065;-80
2022/09/12 12:50:01;;;;;;;4.38;2.30;;;;;;;;;;5010842;28;20050;-80
2022/09/12 12:52:29;;;;;;;4.32;2.20;;;;;;;;;;4994842;28;20050;-81
2022/09/12 12:54:57;;;;;;;6.50;2.25;;;;;;;;;;5011307;28;20074;-81
2022/09/12 12:57:27;;;;;;;2.90;2.10;;;;;;;;;;5011027;28;20193;-81
2022/09/12 12:59:53;;;;;;;2.88;2.13;;;;;;;;;;5011293;28;20054;-81
2022/09/12 13:02:25;;;;;;;2.42;1.83;;;;;;;;;;5011130;28;20074;-81
2022/09/12 13:04:52;;;;;;;2.42;1.95;;;;;;;;;;4997699;28;20137;-82
2022/09/12 13:07:25;;;;;;;2.13;1.92;;;;;;;;;;4991864;28;20073;-81
2022/09/12 13:09:51;;;;;;;4.25;2.22;;;;;;;;;;4991127;28;20046;-81
2022/09/12 13:12:19;;;;;;;2.70;2.10;;;;;;;;;;4991027;28;20061;-83
2022/09/12 13:14:46;;;;;;;2.85;1.95;;;;;;;;;;5002660;28;20044;-79
2022/09/12 13:17:16;;;;;;;3.00;1.85;;;;;;;;;;4996203;28;20053;-80
2022/09/12 13:19:43;;;;;;;3.97;2.25;;;;;;;;;;5004219;28;20450;-80
2022/09/12 13:22:09;;;;;;;4.53;2.17;;;;;;;;;;4990687;28;20046;-80
2022/09/12 13:24:46;;;;;;;2.35;1.90;;;;;;;;;;4989728;28;20375;-80
2022/09/12 13:27:15;;;;;;;3.15;2.30;;;;;;;;;;4988060;28;20038;-79
2022/09/12 13:29:42;;;;;;;4.28;1.98;;;;;;;;;;4988670;28;20065;-80
2022/09/12 13:32:08;;;;;;;2.90;1.90;;;;;;;;;;4989467;28;20038;-81
2022/09/12 13:35:02;;;;;;;3.90;2.00;;;;;;;;;;4972993;28;20058;-80
2022/09/12 13:37:36;;;;;;;3.97;1.70;;;;;;;;;;4990254;28;20042;-79
2022/09/12 13:40:22;;;;;;;4.68;2.22;;;;;;;;;;4988032;28;20068;-79
2022/09/12 13:43:03;;;;;;;4.25;2.38;;;;;;;;;;4987354;28;20056;-81
2022/09/12 13:45:33;;;;;;;2.85;2.35;;;;;;;;;;4984419;28;20053;-80
2022/09/12 13:48:00;;;;;;;8.73;2.65;;;;;;;;;;4984469;28;20554;-80
2022/09/12 13:50:30;;;;;;;4.10;2.60;;;;;;;;;;4984459;28;20042;-80
2022/09/12 13:53:02;;;;;;;3.95;2.50;;;;;;;;;;4988330;28;20490;-79
2022/09/12 13:55:33;;;;;;;3.90;2.38;;;;;;;;;;4990446;28;20053;-79
2022/09/12 13:58:04;;;;;;;3.22;2.13;;;;;;;;;;4971429;28;20042;-80
2022/09/12 14:00:32;;;;;;;3.58;2.15;;;;;;;;;;4986188;28;20626;-78
2022/09/12 14:05:44;;;;;;;4.40;2.30;;;;;;;;;;4991102;28;20077;-80
2022/09/12 14:08:13;;;;;;;2.50;2.08;;;;;;;;;;4973740;28;20114;-79
2022/09/12 14:10:41;;;;;;;3.53;2.20;;;;;;;;;;4989316;28;20054;-78
2022/09/12 14:13:12;;;;;;;3.40;2.20;;;;;;;;;;4988898;28;20223;-80
2022/09/12 14:15:38;;;;;;;3.95;2.45;;;;;;;;;;4990501;28;20058;-78
2022/09/12 14:18:07;;;;;;;2.70;2.20;;;;;;;;;;4988583;28;20081;-80
2022/09/12 14:20:37;;;;;;;2.55;2.05;;;;;;;;;;4991365;28;20391;-78
2022/09/12 14:23:22;;;;;;;2.47;2.25;;;;;;;;;;4994516;28;20320;-80
2022/09/12 14:25:48;;;;;;;3.28;2.30;;;;;;;;;;4976710;28;20181;-78
2022/09/12 14:28:18;;;;;;;2.63;2.03;;;;;;;;;;4993754;28;20069;-78
2022/09/12 14:30:58;;;;;;;3.05;2.17;;;;;;;;;;4994343;28;20050;-77
2022/09/12 14:33:24;;;;;;;;;;;;;;;;;;4994007;28;20049;-80
2022/09/12 14:36:10;;;;;;;6.45;2.10;;;;;;;;;;4994929;28;19949;-78
2022/09/12 14:38:42;;;;;;;4.13;2.03;;;;;;;;;;4994463;28;20050;-80
2022/09/12 14:41:09;;;;;;;2.85;2.10;;;;;;;;;;4994809;28;20046;-80
2022/09/12 14:43:37;;;;;;;3.17;2.45;;;;;;;;;;4994634;28;20061;-80
2022/09/12 14:46:13;;;;;;;6.25;2.20;;;;;;;;;;4993154;28;20060;-80
2022/09/12 14:48:50;;;;;;;4.68;2.17;;;;;;;;;;4990578;28;20444;-80
2022/09/12 14:51:19;;;;;;;3.33;2.63;;;;;;;;;;4993865;28;20046;-80
2022/09/12 14:53:47;;;;;;;8.00;3.10;;;;;;;;;;4993920;28;20054;-80